Helena, AR (72342)

3:00 AM CDT on March 30, 2017 (GMT -0500)
West Dundee Levee | | Change Station

Elev 186 ft 34.55 °N, 90.48 °W | Updated 5 seconds ago

Rain
Rain
68.0 °F
Feels Like 68.0 °F
N
10.3
Wind Variable Wind from WSW
Gusts 12.3 mph

Today
High -- | Low -- °F
--% Chance of Precip.
Yesterday
High -- | Low -- °F
Precip. -- in
Pressure 29.74 in
Visibility 10.0 miles
Clouds Clear
Dew Point 65 °F
Humidity 89%
Rainfall 0.00 in
Snow Depth Not available.
6:51 AM 7:22 PM
Waxing Crescent, 7% visible
METAR KUTA 300755Z AUTO 19014G19KT 10SM CLR 19/16 A2974 RMK AO2 TSNO
Pressure 29.74 in
Visibility 10.0 miles
Clouds Clear
Dew Point 65 °F
Humidity 89%
Rainfall 0.00 in
Snow Depth Not available.
6:51 AM 7:22 PM
Waxing Crescent, 7% visible
METAR KUTA 300755Z AUTO 19014G19KT 10SM CLR 19/16 A2974 RMK AO2 TSNO

Get Severe Weather Alerts

Thanks for signing up!

Be on the lookout for a verification email in your inbox.

You'll start receiving the daily forecast at 8 AM.

×

10-Day Weather Forecast

Almanac

Astronomy

Mar. 30, 2017 Rise Set
Actual Time
Civil Twilight
Nautical Twilight
Astronomical Twilight
Moon
Length of Visible Light
Length of Day
Tomorrow will be .
, % of the Moon is Illuminated

Today's Extremes

State Highs State Lows

Community

WunderPhotos

Upload Photos

1,962,540 photos uploaded!

WunderBlog® & News

Nearby

Air Quality

  Air Quality AQ Index Pollutant
Not available.

Snow Depth

Station Depth Elevation

Earthquake Activity

City Distance Mag. Time & Date
Minimum magnitude displayed is 2.5.

Earthquake Activity

City Distance Mag. Time & Date
Minimum magnitude displayed is 2.5.

Coastal Water Temperatures

Place Temperature

Stations

Nearby Weather Stations

Station Location Temp. Windchill Dew Point Humidity Wind Precip. Elev Updated Type
                   

Watches & Warnings

There are currently no watches in effect.